createdAt,value
2023-02-17T00:01:10.785Z,6.70
2023-02-17T00:04:13.246Z,6.30
2023-02-17T00:07:14.662Z,6.07
2023-02-17T00:10:16.169Z,6.00
2023-02-17T00:13:17.548Z,6.20
2023-02-17T00:16:25.072Z,6.73
2023-02-17T00:19:26.530Z,6.10
2023-02-17T00:22:27.935Z,6.47
2023-02-17T00:25:29.384Z,6.03
2023-02-17T00:28:30.771Z,6.33
2023-02-17T00:31:32.356Z,6.03
2023-02-17T00:34:33.976Z,6.60
2023-02-17T00:37:35.622Z,6.27
2023-02-17T00:40:37.017Z,6.23
2023-02-17T00:43:38.404Z,6.23
2023-02-17T00:46:39.839Z,5.50
2023-02-17T00:49:41.254Z,5.90
2023-02-17T00:52:42.704Z,6.07
2023-02-17T00:55:44.154Z,5.40
2023-02-17T00:58:46.257Z,6.43
2023-02-17T01:01:47.794Z,6.60
2023-02-17T01:04:49.366Z,5.93
2023-02-17T01:07:50.912Z,5.97
2023-02-17T01:10:53.520Z,5.90
2023-02-17T01:13:56.212Z,6.00
2023-02-17T01:16:57.637Z,5.90
2023-02-17T01:19:59.233Z,5.80
2023-02-17T01:23:01.125Z,5.90
2023-02-17T01:26:03.896Z,5.93
2023-02-17T01:29:07.057Z,5.37
2023-02-17T01:32:08.472Z,5.80
2023-02-17T01:35:10.018Z,6.30
2023-02-17T01:38:11.455Z,5.30
2023-02-17T01:41:13.894Z,5.50
2023-02-17T01:44:17.072Z,5.70
2023-02-17T01:47:18.577Z,5.70
2023-02-17T01:50:24.453Z,5.80
2023-02-17T01:53:41.078Z,5.40
2023-02-17T01:56:48.342Z,5.70
2023-02-17T01:59:50.150Z,5.13
2023-02-17T02:02:51.784Z,5.77
2023-02-17T02:05:55.228Z,5.20
2023-02-17T02:09:05.438Z,5.60
2023-02-17T02:12:22.508Z,5.27
2023-02-17T02:15:29.877Z,5.37
2023-02-17T02:18:51.521Z,5.03
2023-02-17T02:22:14.425Z,4.87
2023-02-17T02:25:40.439Z,5.10
2023-02-17T02:28:42.122Z,5.20
2023-02-17T02:32:04.669Z,5.10
2023-02-17T02:35:15.393Z,5.03
2023-02-17T02:38:40.443Z,5.33
2023-02-17T02:41:58.918Z,5.17
2023-02-17T02:45:00.934Z,4.80
2023-02-17T02:48:02.805Z,5.20
2023-02-17T02:51:05.529Z,5.30
2023-02-17T02:54:33.099Z,5.20
2023-02-17T02:57:53.912Z,5.50
2023-02-17T03:01:14.098Z,5.07
2023-02-17T03:04:31.629Z,5.60
2023-02-17T03:07:44.780Z,5.00
2023-02-17T03:10:54.087Z,5.33
2023-02-17T03:13:55.515Z,5.43
2023-02-17T03:16:57.857Z,5.57
2023-02-17T03:20:03.518Z,5.50
2023-02-17T03:23:07.160Z,5.23
2023-02-17T03:26:08.558Z,4.73
2023-02-17T03:29:10.074Z,5.30
2023-02-17T03:32:11.756Z,4.87
2023-02-17T03:35:13.795Z,5.10
2023-02-17T03:38:15.171Z,5.57
2023-02-17T03:41:16.723Z,5.60
2023-02-17T03:44:19.004Z,5.47
2023-02-17T03:47:20.440Z,5.50
2023-02-17T03:50:21.835Z,5.60
2023-02-17T03:53:23.204Z,5.37
2023-02-17T03:56:24.654Z,5.10
2023-02-17T03:59:26.220Z,5.17
2023-02-17T04:02:27.644Z,5.20
2023-02-17T04:05:29.046Z,5.03
2023-02-17T04:08:31.052Z,4.90
2023-02-17T04:11:32.486Z,5.00
2023-02-17T04:14:33.944Z,4.40
2023-02-17T04:17:38.623Z,3.87
2023-02-17T04:20:40.023Z,4.00
2023-02-17T04:23:41.511Z,4.30
2023-02-17T04:26:42.913Z,4.20
2023-02-17T04:29:44.291Z,4.23
2023-02-17T04:32:45.739Z,4.23
2023-02-17T04:35:47.717Z,4.70
2023-02-17T04:38:49.112Z,3.93
2023-02-17T04:41:50.548Z,4.10
2023-02-17T04:44:52.068Z,4.90
2023-02-17T04:47:53.579Z,4.50
2023-02-17T04:50:54.970Z,4.70
2023-02-17T04:53:56.434Z,4.90
2023-02-17T04:56:57.891Z,5.10
2023-02-17T04:59:59.403Z,4.90
2023-02-17T05:03:00.930Z,4.97
2023-02-17T05:06:02.343Z,4.90
2023-02-17T05:09:03.788Z,4.50
2023-02-17T05:12:06.280Z,5.10
2023-02-17T05:15:08.325Z,5.03
2023-02-17T05:18:09.700Z,5.27
2023-02-17T05:21:11.093Z,4.80
2023-02-17T05:24:12.548Z,4.70
2023-02-17T05:27:14.001Z,4.60
2023-02-17T05:30:15.621Z,4.60
2023-02-17T05:33:17.052Z,4.47
2023-02-17T05:36:18.603Z,4.30
2023-02-17T05:39:20.170Z,4.17
2023-02-17T05:42:21.604Z,4.60
2023-02-17T05:45:23.234Z,4.60
2023-02-17T05:48:24.615Z,5.07
2023-02-17T05:51:26.138Z,4.50
2023-02-17T05:54:27.605Z,4.50
2023-02-17T05:57:29.094Z,4.50
2023-02-17T06:00:30.658Z,4.50
2023-02-17T06:03:32.049Z,4.93
2023-02-17T06:06:33.501Z,4.63
2023-02-17T06:09:34.928Z,4.63
2023-02-17T06:12:36.791Z,4.07
2023-02-17T06:15:38.281Z,4.93
2023-02-17T06:18:39.761Z,4.80
2023-02-17T06:21:41.197Z,4.90
2023-02-17T06:24:42.610Z,4.07
2023-02-17T06:27:44.113Z,4.67
2023-02-17T06:30:45.696Z,4.47
2023-02-17T06:33:47.369Z,4.60
2023-02-17T06:36:48.838Z,4.27
2023-02-17T06:39:50.229Z,4.10
2023-02-17T06:42:51.728Z,4.20
2023-02-17T06:45:53.384Z,4.27
2023-02-17T06:48:54.801Z,4.87
2023-02-17T06:51:56.188Z,4.43
2023-02-17T06:54:57.575Z,4.33
2023-02-17T06:57:58.952Z,4.00
2023-02-17T07:01:00.328Z,4.50
2023-02-17T07:04:02.005Z,4.70
2023-02-17T07:07:03.619Z,4.40
2023-02-17T07:10:05.738Z,4.17
2023-02-17T07:13:07.231Z,4.17
2023-02-17T07:16:10.618Z,4.10
2023-02-17T07:19:12.423Z,4.17
2023-02-17T07:22:13.845Z,4.23
2023-02-17T07:25:15.335Z,4.53
2023-02-17T07:28:16.955Z,4.47
2023-02-17T07:31:18.535Z,3.80
2023-02-17T07:34:20.048Z,4.13
2023-02-17T07:37:21.866Z,4.07
2023-02-17T07:40:23.447Z,4.20
2023-02-17T07:43:24.896Z,4.10
2023-02-17T07:46:27.084Z,3.47
2023-02-17T07:49:28.595Z,4.13
2023-02-17T07:52:30.115Z,4.27
2023-02-17T07:55:31.549Z,3.50
2023-02-17T07:58:34.114Z,3.20
2023-02-17T08:01:35.716Z,3.27
2023-02-17T08:04:37.242Z,3.30
2023-02-17T08:07:38.728Z,3.33
2023-02-17T08:10:59.020Z,3.40
2023-02-17T08:14:01.082Z,3.20
2023-02-17T08:17:02.541Z,3.20
2023-02-17T08:20:09.054Z,3.30
2023-02-17T08:23:10.877Z,3.43
2023-02-17T08:26:12.277Z,3.13
2023-02-17T08:29:13.720Z,2.83
2023-02-17T08:32:16.935Z,3.20
2023-02-17T08:35:22.611Z,2.63
2023-02-17T08:38:24.056Z,2.87
2023-02-17T08:41:31.513Z,2.70
2023-02-17T08:44:35.734Z,2.77
2023-02-17T08:47:37.123Z,2.37
2023-02-17T08:50:38.522Z,2.70
2023-02-17T08:53:40.075Z,2.70
2023-02-17T08:56:43.080Z,2.53
2023-02-17T08:59:47.956Z,3.47
2023-02-17T09:02:50.285Z,2.80
2023-02-17T09:05:58.322Z,2.50
2023-02-17T09:08:59.970Z,2.50
2023-02-17T09:12:02.569Z,2.37
2023-02-17T09:15:04.457Z,2.23
2023-02-17T09:18:06.309Z,2.83
2023-02-17T09:21:09.930Z,2.50
2023-02-17T09:24:11.385Z,2.73
2023-02-17T09:27:13.983Z,2.43
2023-02-17T09:30:15.760Z,2.80
2023-02-17T09:33:17.285Z,2.33
2023-02-17T09:36:25.368Z,2.40
2023-02-17T09:39:26.835Z,2.23
2023-02-17T09:42:29.100Z,2.47
2023-02-17T09:45:35.598Z,2.40
2023-02-17T09:48:39.567Z,2.43
2023-02-17T09:51:49.755Z,3.03
2023-02-17T09:54:57.761Z,2.60
2023-02-17T09:58:08.981Z,2.40
2023-02-17T10:01:20.257Z,2.40
2023-02-17T10:04:33.985Z,2.33
2023-02-17T10:07:41.658Z,2.80
2023-02-17T10:10:54.173Z,2.60
2023-02-17T10:14:01.354Z,2.53
2023-02-17T10:17:28.270Z,2.75
2023-02-17T10:20:55.475Z,2.57
2023-02-17T10:23:56.915Z,2.87
2023-02-17T10:27:16.481Z,2.90
2023-02-17T10:30:30.029Z,2.70
2023-02-17T10:33:34.241Z,2.50
2023-02-17T10:36:59.751Z,2.67
2023-02-17T10:40:03.375Z,2.80
2023-02-17T10:43:09.017Z,2.70
2023-02-17T10:46:13.046Z,3.07
2023-02-17T10:49:26.004Z,2.90
2023-02-17T10:52:36.360Z,2.60
2023-02-17T10:55:45.964Z,2.60
2023-02-17T10:58:55.597Z,2.70
2023-02-17T11:02:13.541Z,2.60
2023-02-17T11:05:28.003Z,2.63
2023-02-17T11:08:31.544Z,2.60
2023-02-17T11:11:36.083Z,2.80
2023-02-17T11:14:43.661Z,2.60
2023-02-17T11:17:45.661Z,2.27
2023-02-17T11:20:47.905Z,1.90
2023-02-17T11:23:54.992Z,2.53
2023-02-17T11:26:59.956Z,2.13
2023-02-17T11:30:14.490Z,2.10
2023-02-17T11:33:22.439Z,2.23
2023-02-17T11:36:29.775Z,2.40
2023-02-17T11:39:38.892Z,2.20
2023-02-17T11:42:40.279Z,2.10
2023-02-17T11:45:54.042Z,2.10
2023-02-17T11:48:55.496Z,2.50
2023-02-17T11:52:19.804Z,2.17
2023-02-17T11:55:25.340Z,2.20
2023-02-17T11:58:48.018Z,2.20
2023-02-17T12:02:15.749Z,2.20
2023-02-17T12:05:26.255Z,2.33
2023-02-17T12:08:33.817Z,2.03
2023-02-17T12:12:09.846Z,2.33
2023-02-17T12:15:28.965Z,2.30
2023-02-17T12:18:49.176Z,1.97
2023-02-17T12:22:15.024Z,2.20
2023-02-17T12:25:37.210Z,2.13
2023-02-17T12:28:48.552Z,2.17
2023-02-17T12:32:14.237Z,1.90
2023-02-17T12:35:22.334Z,2.20
2023-02-17T12:38:35.435Z,2.47
2023-02-17T12:41:41.259Z,2.30
2023-02-17T12:44:47.601Z,2.67
2023-02-17T12:47:56.858Z,2.07
2023-02-17T12:51:07.496Z,2.40
2023-02-17T12:54:24.474Z,2.40
2023-02-17T12:57:58.020Z,2.23
2023-02-17T13:01:11.672Z,2.60
2023-02-17T13:04:18.144Z,2.67
2023-02-17T13:07:41.460Z,2.87
2023-02-17T13:10:43.109Z,2.57
2023-02-17T13:13:44.531Z,2.40
2023-02-17T13:16:46.473Z,3.07
2023-02-17T13:19:48.159Z,2.47
2023-02-17T13:22:49.888Z,2.60
2023-02-17T13:26:16.699Z,2.87
2023-02-17T13:29:23.110Z,2.60
2023-02-17T13:32:28.780Z,2.57
2023-02-17T13:35:33.585Z,2.73
2023-02-17T13:38:35.981Z,2.60
2023-02-17T13:41:47.248Z,2.53
2023-02-17T13:44:51.111Z,2.20
2023-02-17T13:47:55.482Z,2.23
2023-02-17T13:50:58.959Z,2.20
2023-02-17T13:54:08.932Z,2.43
2023-02-17T13:57:22.844Z,2.40
2023-02-17T14:00:29.887Z,2.43
2023-02-17T14:03:40.542Z,2.73
2023-02-17T14:06:42.080Z,2.57
2023-02-17T14:09:53.461Z,2.80
2023-02-17T14:12:55.485Z,2.60
2023-02-17T14:15:59.787Z,2.60
2023-02-17T14:19:02.647Z,2.73
2023-02-17T14:22:05.724Z,2.83
2023-02-17T14:25:25.603Z,3.50
2023-02-17T14:28:27.790Z,2.80
2023-02-17T14:31:29.544Z,2.70
2023-02-17T14:34:34.316Z,2.87
2023-02-17T14:37:36.851Z,3.20
2023-02-17T14:40:40.092Z,2.67
2023-02-17T14:43:41.727Z,3.00
2023-02-17T14:46:43.413Z,3.57
2023-02-17T14:49:44.828Z,3.20
2023-02-17T14:52:48.976Z,2.70
2023-02-17T14:55:56.194Z,3.40
2023-02-17T14:58:57.809Z,2.80
2023-02-17T15:01:59.379Z,3.30
2023-02-17T15:05:00.887Z,3.33
2023-02-17T15:08:02.364Z,3.70
2023-02-17T15:11:05.429Z,3.50
2023-02-17T15:14:07.123Z,3.80
2023-02-17T15:17:08.718Z,3.30
2023-02-17T15:20:11.466Z,3.30
2023-02-17T15:23:15.202Z,3.07
2023-02-17T15:26:16.649Z,3.70
2023-02-17T15:29:21.384Z,3.40
2023-02-17T15:32:23.953Z,3.77
2023-02-17T15:35:27.423Z,3.63
2023-02-17T15:38:28.831Z,4.03
2023-02-17T15:41:31.629Z,3.93
2023-02-17T15:44:45.481Z,3.93
2023-02-17T15:47:48.619Z,3.87
2023-02-17T15:50:50.068Z,3.63
2023-02-17T15:53:51.963Z,4.20
2023-02-17T15:56:53.568Z,4.80
2023-02-17T15:59:55.393Z,4.00
2023-02-17T16:02:57.152Z,4.53
2023-02-17T16:05:58.569Z,4.20
2023-02-17T16:08:59.951Z,4.90
2023-02-17T16:12:02.645Z,3.83
2023-02-17T16:15:04.681Z,4.70
2023-02-17T16:18:06.424Z,4.40
2023-02-17T16:21:10.312Z,4.97
2023-02-17T16:24:11.828Z,4.50
2023-02-17T16:27:15.672Z,4.43
2023-02-17T16:30:37.336Z,4.80
2023-02-17T16:33:38.869Z,5.10
2023-02-17T16:36:40.419Z,5.53
2023-02-17T16:39:42.068Z,5.50
2023-02-17T16:42:43.500Z,5.10
2023-02-17T16:45:55.545Z,4.80
2023-02-17T16:48:58.518Z,4.73
2023-02-17T16:52:01.311Z,5.00
2023-02-17T16:55:02.921Z,4.40
2023-02-17T16:58:11.394Z,4.77
2023-02-17T17:01:13.329Z,4.77
2023-02-17T17:04:15.838Z,4.70
2023-02-17T17:07:18.003Z,5.00
2023-02-17T17:10:30.512Z,5.13
2023-02-17T17:13:31.911Z,4.90
2023-02-17T17:16:34.791Z,4.67
2023-02-17T17:19:36.208Z,5.80
2023-02-17T17:22:37.644Z,5.83
2023-02-17T17:25:42.337Z,5.53
2023-02-17T17:28:44.378Z,5.83
2023-02-17T17:31:46.436Z,5.20
2023-02-17T17:34:51.869Z,5.00
2023-02-17T17:37:54.046Z,5.10
2023-02-17T17:40:56.873Z,5.00
2023-02-17T17:43:58.317Z,5.43
2023-02-17T17:46:59.796Z,5.00
2023-02-17T17:50:01.234Z,5.13
2023-02-17T17:53:02.643Z,5.10
2023-02-17T17:56:04.661Z,5.00
2023-02-17T17:59:06.709Z,5.17
2023-02-17T18:02:08.643Z,4.57
2023-02-17T18:05:10.502Z,5.00
2023-02-17T18:08:13.092Z,5.13
2023-02-17T18:11:17.905Z,5.20
2023-02-17T18:14:20.038Z,5.30
2023-02-17T18:17:23.236Z,4.53
2023-02-17T18:20:24.781Z,5.03
2023-02-17T18:23:26.266Z,4.97
2023-02-17T18:26:29.208Z,4.87
2023-02-17T18:29:30.698Z,5.50
2023-02-17T18:32:32.099Z,5.40
2023-02-17T18:35:38.535Z,4.70
2023-02-17T18:38:39.997Z,4.80
2023-02-17T18:41:41.444Z,4.90
2023-02-17T18:44:42.885Z,4.60
2023-02-17T18:47:45.348Z,4.50
2023-02-17T18:50:46.857Z,4.70
2023-02-17T18:53:48.936Z,4.43
2023-02-17T18:56:50.369Z,5.20
2023-02-17T18:59:51.892Z,4.60
2023-02-17T19:02:53.328Z,4.10
2023-02-17T19:05:54.899Z,4.30
2023-02-17T19:08:56.808Z,4.10
2023-02-17T19:11:58.279Z,4.23
2023-02-17T19:14:59.671Z,3.93
2023-02-17T19:18:01.059Z,4.40
2023-02-17T19:21:02.990Z,4.40
2023-02-17T19:24:04.560Z,4.07
2023-02-17T19:27:06.900Z,4.23
2023-02-17T19:30:09.913Z,4.00
2023-02-17T19:33:11.401Z,4.17
2023-02-17T19:36:19.061Z,4.00
2023-02-17T19:39:21.290Z,5.37
2023-02-17T19:42:23.010Z,3.67
2023-02-17T19:45:24.395Z,3.23
2023-02-17T19:48:26.099Z,3.30
2023-02-17T19:51:27.494Z,3.60
2023-02-17T19:54:28.888Z,3.40
2023-02-17T19:57:30.360Z,3.83
2023-02-17T20:00:31.847Z,3.40
2023-02-17T20:03:33.341Z,3.27
2023-02-17T20:06:39.405Z,3.50
2023-02-17T20:09:40.803Z,4.00
2023-02-17T20:12:42.191Z,3.77
2023-02-17T20:15:43.638Z,3.90
2023-02-17T20:18:48.032Z,3.90
2023-02-17T20:21:49.543Z,3.90
2023-02-17T20:24:51.030Z,3.73
2023-02-17T20:27:53.636Z,3.90
2023-02-17T20:30:55.066Z,3.47
2023-02-17T20:33:56.686Z,3.50
2023-02-17T20:36:59.107Z,3.40
2023-02-17T20:40:00.713Z,3.57
2023-02-17T20:43:02.661Z,3.40
2023-02-17T20:46:04.393Z,3.40
2023-02-17T20:49:05.895Z,3.37
2023-02-17T20:52:07.298Z,3.43
2023-02-17T20:55:08.861Z,3.20
2023-02-17T20:58:10.787Z,3.40
2023-02-17T21:01:12.318Z,3.53
2023-02-17T21:04:15.126Z,3.43
2023-02-17T21:07:17.535Z,3.23
2023-02-17T21:10:23.135Z,3.60
2023-02-17T21:13:24.532Z,3.17
2023-02-17T21:16:30.866Z,3.50
2023-02-17T21:19:32.861Z,3.17
2023-02-17T21:22:36.128Z,3.40
2023-02-17T21:25:37.536Z,3.50
2023-02-17T21:28:39.302Z,3.33
2023-02-17T21:31:40.849Z,3.20
2023-02-17T21:34:42.339Z,3.57
2023-02-17T21:37:43.798Z,3.23
2023-02-17T21:40:45.178Z,3.50
2023-02-17T21:44:06.602Z,3.40
2023-02-17T21:47:08.351Z,3.30
2023-02-17T21:50:09.901Z,3.23
2023-02-17T21:53:11.297Z,3.23
2023-02-17T21:56:12.817Z,3.13
2023-02-17T21:59:14.245Z,3.23
2023-02-17T22:02:15.713Z,3.17
2023-02-17T22:05:17.168Z,3.13
2023-02-17T22:08:18.786Z,3.40
2023-02-17T22:11:25.592Z,2.93
2023-02-17T22:14:27.045Z,3.07
2023-02-17T22:17:28.445Z,3.00
2023-02-17T22:20:30.052Z,3.00
2023-02-17T22:23:31.434Z,3.07
2023-02-17T22:26:32.917Z,3.27
2023-02-17T22:29:34.295Z,2.97
2023-02-17T22:32:36.220Z,2.80
2023-02-17T22:35:37.613Z,3.17
2023-02-17T22:38:39.471Z,3.03
2023-02-17T22:41:40.964Z,2.87
2023-02-17T22:44:42.339Z,2.93
2023-02-17T22:47:43.732Z,2.93
2023-02-17T22:50:45.134Z,2.90
2023-02-17T22:53:46.536Z,2.93
2023-02-17T22:56:47.954Z,2.63
2023-02-17T22:59:49.533Z,2.80
2023-02-17T23:02:50.960Z,2.93
2023-02-17T23:05:52.374Z,2.70
2023-02-17T23:08:54.424Z,2.40
2023-02-17T23:11:58.155Z,2.70
2023-02-17T23:15:00.660Z,3.23
2023-02-17T23:18:02.071Z,3.10
2023-02-17T23:21:11.316Z,3.03
2023-02-17T23:24:14.140Z,2.50
2023-02-17T23:27:15.626Z,3.13
2023-02-17T23:30:19.785Z,2.87
2023-02-17T23:33:23.378Z,2.57
2023-02-17T23:36:24.799Z,2.53
2023-02-17T23:39:26.843Z,3.10
2023-02-17T23:42:28.301Z,2.90
2023-02-17T23:45:29.688Z,2.73
2023-02-17T23:48:31.149Z,2.70
2023-02-17T23:51:32.598Z,2.43
2023-02-17T23:54:34.080Z,2.70
2023-02-17T23:57:41.430Z,2.53
